sensor_id;sensor_type;location;lat;lon;timestamp;pressure;altitude;pressure_sealevel;temperature;humidity
29331;BME280;16331;52.528;13.342;2022-08-03T00:01:15;162254.06;;;23.80;75.28
29331;BME280;16331;52.528;13.342;2022-08-03T00:03:42;162231.88;;;23.72;74.35
29331;BME280;16331;52.528;13.342;2022-08-03T00:06:08;162224.97;;;23.70;75.66
29331;BME280;16331;52.528;13.342;2022-08-03T00:08:34;162283.25;;;23.91;73.14
29331;BME280;16331;52.528;13.342;2022-08-03T00:11:01;162337.44;;;24.10;71.89
29331;BME280;16331;52.528;13.342;2022-08-03T00:13:31;162313.81;;;24.02;71.49
29331;BME280;16331;52.528;13.342;2022-08-03T00:15:57;162287.41;;;23.92;72.55
29331;BME280;16331;52.528;13.342;2022-08-03T00:18:23;162286.00;;;23.92;72.90
29331;BME280;16331;52.528;13.342;2022-08-03T00:20:49;162269.38;;;23.86;72.68
29331;BME280;16331;52.528;13.342;2022-08-03T00:23:16;162219.41;;;23.68;74.93
29331;BME280;16331;52.528;13.342;2022-08-03T00:25:42;162234.69;;;23.73;74.02
29331;BME280;16331;52.528;13.342;2022-08-03T00:28:09;162277.69;;;23.89;73.26
29331;BME280;16331;52.528;13.342;2022-08-03T00:30:35;162263.81;;;23.84;73.28
29331;BME280;16331;52.528;13.342;2022-08-03T00:33:02;162252.72;;;23.80;73.14
29331;BME280;16331;52.528;13.342;2022-08-03T00:35:28;162238.84;;;23.75;73.54
29331;BME280;16331;52.528;13.342;2022-08-03T00:37:55;162226.38;;;23.70;73.96
29331;BME280;16331;52.528;13.342;2022-08-03T00:40:21;162231.88;;;23.72;73.99
29331;BME280;16331;52.528;13.342;2022-08-03T00:42:48;162229.13;;;23.71;74.14
29331;BME280;16331;52.528;13.342;2022-08-03T00:45:17;162233.28;;;23.73;74.05
29331;BME280;16331;52.528;13.342;2022-08-03T00:47:45;162233.28;;;23.73;74.03
29331;BME280;16331;52.528;13.342;2022-08-03T00:50:12;162227.72;;;23.71;74.58
29331;BME280;16331;52.528;13.342;2022-08-03T00:52:38;162211.09;;;23.65;75.01
29331;BME280;16331;52.528;13.342;2022-08-03T00:55:05;162190.28;;;23.57;75.43
29331;BME280;16331;52.528;13.342;2022-08-03T00:57:32;162152.81;;;23.44;76.33
29331;BME280;16331;52.528;13.342;2022-08-03T01:00:01;162172.25;;;23.51;76.02
29331;BME280;16331;52.528;13.342;2022-08-03T01:02:30;162177.81;;;23.53;75.99
29331;BME280;16331;52.528;13.342;2022-08-03T01:04:57;162168.09;;;23.49;76.61
29331;BME280;16331;52.528;13.342;2022-08-03T01:11:01;162112.59;;;23.29;77.39
29331;BME280;16331;52.528;13.342;2022-08-03T01:13:31;162084.84;;;23.19;77.88
29331;BME280;16331;52.528;13.342;2022-08-03T01:16:11;162080.69;;;23.18;77.71
29331;BME280;16331;52.528;13.342;2022-08-03T01:19:12;162044.63;;;23.05;78.73
29331;BME280;16331;52.528;13.342;2022-08-03T01:21:58;162061.25;;;23.11;78.67
29331;BME280;16331;52.528;13.342;2022-08-03T01:24:55;162050.13;;;23.07;79.89
29331;BME280;16331;52.528;13.342;2022-08-03T01:27:44;162066.81;;;23.13;80.05
29331;BME280;16331;52.528;13.342;2022-08-03T01:30:16;162075.13;;;23.16;79.65
29331;BME280;16331;52.528;13.342;2022-08-03T01:33:01;162076.47;;;23.16;80.05
29331;BME280;16331;52.528;13.342;2022-08-03T01:35:40;162070.97;;;23.14;80.65
29331;BME280;16331;52.528;13.342;2022-08-03T01:38:18;162116.75;;;23.31;79.66
29331;BME280;16331;52.528;13.342;2022-08-03T01:40:47;162138.94;;;23.39;78.80
29331;BME280;16331;52.528;13.342;2022-08-03T01:43:19;162137.59;;;23.38;77.85
29331;BME280;16331;52.528;13.342;2022-08-03T01:45:46;162105.69;;;23.27;78.64
29331;BME280;16331;52.528;13.342;2022-08-03T01:48:16;162130.63;;;23.36;77.47
29331;BME280;16331;52.528;13.342;2022-08-03T01:50:43;162111.25;;;23.29;77.52
29331;BME280;16331;52.528;13.342;2022-08-03T01:53:13;162125.13;;;23.34;77.02
29331;BME280;16331;52.528;13.342;2022-08-03T01:55:42;162100.06;;;23.25;77.16
29331;BME280;16331;52.528;13.342;2022-08-03T01:58:09;162111.25;;;23.29;77.25
29331;BME280;16331;52.528;13.342;2022-08-03T02:00:36;162084.84;;;23.19;77.44
29331;BME280;16331;52.528;13.342;2022-08-03T02:03:07;162114.00;;;23.30;77.44
29331;BME280;16331;52.528;13.342;2022-08-03T02:05:33;162170.84;;;23.50;76.39
29331;BME280;16331;52.528;13.342;2022-08-03T02:08:03;162172.25;;;23.51;76.97
29331;BME280;16331;52.528;13.342;2022-08-03T02:10:30;162191.66;;;23.58;76.09
29331;BME280;16331;52.528;13.342;2022-08-03T02:12:59;162213.84;;;23.66;76.01
29331;BME280;16331;52.528;13.342;2022-08-03T02:15:27;162219.41;;;23.68;76.04
29331;BME280;16331;52.528;13.342;2022-08-03T02:17:54;162205.53;;;23.63;76.67
29331;BME280;16331;52.528;13.342;2022-08-03T02:20:22;162204.19;;;23.62;76.50
29331;BME280;16331;52.528;13.342;2022-08-03T02:22:48;162201.38;;;23.61;76.22
29331;BME280;16331;52.528;13.342;2022-08-03T02:25:15;162191.66;;;23.58;76.72
29331;BME280;16331;52.528;13.342;2022-08-03T02:27:54;162137.59;;;23.38;77.85
29331;BME280;16331;52.528;13.342;2022-08-03T02:30:21;162119.56;;;23.32;78.19
29331;BME280;16331;52.528;13.342;2022-08-03T02:32:54;162154.22;;;23.44;77.78
29331;BME280;16331;52.528;13.342;2022-08-03T02:35:24;162161.13;;;23.47;77.30
29331;BME280;16331;52.528;13.342;2022-08-03T02:37:55;162155.63;;;23.45;77.49
29331;BME280;16331;52.528;13.342;2022-08-03T02:40:23;162143.09;;;23.40;77.84
29331;BME280;16331;52.528;13.342;2022-08-03T02:42:56;162091.75;;;23.22;79.50
29331;BME280;16331;52.528;13.342;2022-08-03T02:45:25;162133.44;;;23.37;78.95
29331;BME280;16331;52.528;13.342;2022-08-03T02:47:55;162100.06;;;23.25;78.88
29331;BME280;16331;52.528;13.342;2022-08-03T02:50:23;162118.16;;;23.31;78.50
29331;BME280;16331;52.528;13.342;2022-08-03T02:52:51;162129.28;;;23.35;77.27
29331;BME280;16331;52.528;13.342;2022-08-03T02:55:19;162094.50;;;23.23;77.61
29331;BME280;16331;52.528;13.342;2022-08-03T02:57:47;162094.50;;;23.23;77.20
29331;BME280;16331;52.528;13.342;2022-08-03T03:00:13;162097.31;;;23.24;78.40
29331;BME280;16331;52.528;13.342;2022-08-03T03:02:46;162079.28;;;23.17;78.37
29331;BME280;16331;52.528;13.342;2022-08-03T03:05:14;162065.41;;;23.12;78.93
29331;BME280;16331;52.528;13.342;2022-08-03T03:07:41;162079.28;;;23.17;77.98
29331;BME280;16331;52.528;13.342;2022-08-03T03:10:08;162097.31;;;23.24;77.64
29331;BME280;16331;52.528;13.342;2022-08-03T03:12:36;162104.28;;;23.26;77.46
29331;BME280;16331;52.528;13.342;2022-08-03T03:15:05;162101.47;;;23.25;76.65
29331;BME280;16331;52.528;13.342;2022-08-03T03:17:33;162066.81;;;23.13;77.83
29331;BME280;16331;52.528;13.342;2022-08-03T03:20:00;162136.19;;;23.38;75.39
29331;BME280;16331;52.528;13.342;2022-08-03T03:22:27;162123.72;;;23.33;75.55
29331;BME280;16331;52.528;13.342;2022-08-03T03:24:55;162091.75;;;23.22;76.33
29331;BME280;16331;52.528;13.342;2022-08-03T03:27:22;162108.44;;;23.28;76.13
29331;BME280;16331;52.528;13.342;2022-08-03T03:29:49;162075.13;;;23.16;76.88
29331;BME280;16331;52.528;13.342;2022-08-03T03:32:15;162093.16;;;23.22;76.26
29331;BME280;16331;52.528;13.342;2022-08-03T03:34:42;162087.59;;;23.20;76.16
29331;BME280;16331;52.528;13.342;2022-08-03T03:37:08;162079.28;;;23.17;75.79
29331;BME280;16331;52.528;13.342;2022-08-03T03:39:34;162068.16;;;23.13;76.20
29331;BME280;16331;52.528;13.342;2022-08-03T03:42:01;162073.72;;;23.15;76.32
29331;BME280;16331;52.528;13.342;2022-08-03T03:44:28;162061.25;;;23.11;76.79
29331;BME280;16331;52.528;13.342;2022-08-03T03:47:07;162036.31;;;23.02;77.44
29331;BME280;16331;52.528;13.342;2022-08-03T03:49:34;162030.75;;;23.00;77.66
29331;BME280;16331;52.528;13.342;2022-08-03T03:52:01;162012.72;;;22.93;78.74
29331;BME280;16331;52.528;13.342;2022-08-03T03:54:38;162033.50;;;23.01;78.53
29331;BME280;16331;52.528;13.342;2022-08-03T03:57:05;162029.34;;;22.99;78.51
29331;BME280;16331;52.528;13.342;2022-08-03T03:59:32;162008.56;;;22.92;78.80
29331;BME280;16331;52.528;13.342;2022-08-03T04:02:02;162044.63;;;23.05;78.93
29331;BME280;16331;52.528;13.342;2022-08-03T04:04:32;162039.06;;;23.03;78.78
29331;BME280;16331;52.528;13.342;2022-08-03T04:07:17;162052.94;;;23.08;78.77
29331;BME280;16331;52.528;13.342;2022-08-03T04:10:04;162052.94;;;23.08;78.52
29331;BME280;16331;52.528;13.342;2022-08-03T04:12:52;162090.34;;;23.21;78.14
29331;BME280;16331;52.528;13.342;2022-08-03T04:15:21;162133.44;;;23.37;77.46
29331;BME280;16331;52.528;13.342;2022-08-03T04:17:49;162155.63;;;23.45;75.72
29331;BME280;16331;52.528;13.342;2022-08-03T04:20:19;162138.94;;;23.39;76.11
29331;BME280;16331;52.528;13.342;2022-08-03T04:22:48;162119.56;;;23.32;76.66
29331;BME280;16331;52.528;13.342;2022-08-03T04:25:17;162105.69;;;23.27;77.23
29331;BME280;16331;52.528;13.342;2022-08-03T04:27:46;162089.00;;;23.21;77.87
29331;BME280;16331;52.528;13.342;2022-08-03T04:30:14;162105.69;;;23.27;77.86
29331;BME280;16331;52.528;13.342;2022-08-03T04:32:40;162080.69;;;23.18;78.65
29331;BME280;16331;52.528;13.342;2022-08-03T04:35:10;162039.06;;;23.03;79.48
29331;BME280;16331;52.528;13.342;2022-08-03T04:37:42;162097.31;;;23.24;78.70
29331;BME280;16331;52.528;13.342;2022-08-03T04:40:12;162132.03;;;23.36;78.89
29331;BME280;16331;52.528;13.342;2022-08-03T04:42:40;162205.53;;;23.63;75.57
29331;BME280;16331;52.528;13.342;2022-08-03T04:45:10;162202.78;;;23.62;76.33
29331;BME280;16331;52.528;13.342;2022-08-03T04:47:37;162224.97;;;23.70;75.28
29331;BME280;16331;52.528;13.342;2022-08-03T04:50:04;162230.53;;;23.72;75.05
29331;BME280;16331;52.528;13.342;2022-08-03T04:52:31;162244.41;;;23.77;75.31
29331;BME280;16331;52.528;13.342;2022-08-03T04:54:58;162240.25;;;23.75;74.98
29331;BME280;16331;52.528;13.342;2022-08-03T04:57:24;162224.97;;;23.70;75.87
29331;BME280;16331;52.528;13.342;2022-08-03T04:59:51;162238.84;;;23.75;76.25
29331;BME280;16331;52.528;13.342;2022-08-03T05:02:19;162286.00;;;23.92;74.48
29331;BME280;16331;52.528;13.342;2022-08-03T05:04:46;162366.56;;;24.21;71.98
29331;BME280;16331;52.528;13.342;2022-08-03T05:07:12;162358.22;;;24.18;71.55
29331;BME280;16331;52.528;13.342;2022-08-03T05:09:39;162305.50;;;23.99;72.19
29331;BME280;16331;52.528;13.342;2022-08-03T05:12:06;162295.72;;;23.95;73.24
29331;BME280;16331;52.528;13.342;2022-08-03T05:14:34;162272.13;;;23.87;72.73
29331;BME280;16331;52.528;13.342;2022-08-03T05:17:06;162277.69;;;23.89;71.00
29331;BME280;16331;52.528;13.342;2022-08-03T05:19:33;162294.31;;;23.95;71.93
29331;BME280;16331;52.528;13.342;2022-08-03T05:21:59;162284.59;;;23.91;72.09
29331;BME280;16331;52.528;13.342;2022-08-03T05:24:25;162342.94;;;24.12;70.94
29331;BME280;16331;52.528;13.342;2022-08-03T05:26:52;162373.47;;;24.23;69.88
29331;BME280;16331;52.528;13.342;2022-08-03T05:29:18;162340.19;;;24.11;70.04
29331;BME280;16331;52.528;13.342;2022-08-03T05:31:44;162402.66;;;24.34;70.15
29331;BME280;16331;52.528;13.342;2022-08-03T05:34:12;162445.66;;;24.50;68.35
29331;BME280;16331;52.528;13.342;2022-08-03T05:36:38;162488.69;;;24.65;66.16
29331;BME280;16331;52.528;13.342;2022-08-03T05:39:04;162508.19;;;24.72;64.55
29331;BME280;16331;52.528;13.342;2022-08-03T05:41:30;162574.84;;;24.96;64.59
29331;BME280;16331;52.528;13.342;2022-08-03T05:43:57;162658.16;;;25.26;62.79
29331;BME280;16331;52.528;13.342;2022-08-03T05:46:23;162647.06;;;25.22;63.32
29331;BME280;16331;52.528;13.342;2022-08-03T05:48:49;162630.38;;;25.16;62.45
29331;BME280;16331;52.528;13.342;2022-08-03T05:51:19;162597.06;;;25.04;63.49
29331;BME280;16331;52.528;13.342;2022-08-03T05:53:45;162612.31;;;25.10;64.53
29331;BME280;16331;52.528;13.342;2022-08-03T05:56:11;162715.16;;;25.47;61.63
29331;BME280;16331;52.528;13.342;2022-08-03T05:59:00;162774.91;;;25.69;61.88
29331;BME280;16331;52.528;13.342;2022-08-03T06:01:26;162816.56;;;25.84;59.48
29331;BME280;16331;52.528;13.342;2022-08-03T06:03:55;162783.25;;;25.72;59.13
29331;BME280;16331;52.528;13.342;2022-08-03T06:06:21;162834.63;;;25.90;59.59
29331;BME280;16331;52.528;13.342;2022-08-03T06:08:47;162876.41;;;26.05;58.32
29331;BME280;16331;52.528;13.342;2022-08-03T06:11:13;162870.84;;;26.03;58.41
29331;BME280;16331;52.528;13.342;2022-08-03T06:13:39;162816.56;;;25.84;59.88
29331;BME280;16331;52.528;13.342;2022-08-03T06:16:06;162923.66;;;26.22;57.54
29331;BME280;16331;52.528;13.342;2022-08-03T06:18:32;162937.56;;;26.27;57.32
29331;BME280;16331;52.528;13.342;2022-08-03T06:20:58;162994.53;;;26.48;56.63
29331;BME280;16331;52.528;13.342;2022-08-03T06:23:24;162990.38;;;26.46;56.76
29331;BME280;16331;52.528;13.342;2022-08-03T06:25:51;162900.06;;;26.14;55.73
29331;BME280;16331;52.528;13.342;2022-08-03T06:28:17;162866.66;;;26.02;56.14
29331;BME280;16331;52.528;13.342;2022-08-03T06:30:44;162876.41;;;26.05;55.93
29331;BME280;16331;52.528;13.342;2022-08-03T06:33:10;162902.81;;;26.15;55.32
29331;BME280;16331;52.528;13.342;2022-08-03T06:35:36;163034.88;;;26.62;53.44
29331;BME280;16331;52.528;13.342;2022-08-03T06:38:02;163086.41;;;26.81;52.75
29331;BME280;16331;52.528;13.342;2022-08-03T06:40:28;163122.50;;;26.94;52.40
29331;BME280;16331;52.528;13.342;2022-08-03T06:43:00;163078.00;;;26.78;52.12
29331;BME280;16331;52.528;13.342;2022-08-03T06:45:27;163119.75;;;26.93;51.32
29331;BME280;16331;52.528;13.342;2022-08-03T06:50:26;163147.59;;;27.03;51.40
29331;BME280;16331;52.528;13.342;2022-08-03T06:52:53;163200.44;;;27.22;50.78
29331;BME280;16331;52.528;13.342;2022-08-03T06:55:19;163282.53;;;27.52;50.18
29331;BME280;16331;52.528;13.342;2022-08-03T06:57:45;163250.56;;;27.40;50.15
29331;BME280;16331;52.528;13.342;2022-08-03T07:00:11;163279.78;;;27.51;49.76
29331;BME280;16331;52.528;13.342;2022-08-03T07:02:38;163231.09;;;27.33;50.42
29331;BME280;16331;52.528;13.342;2022-08-03T07:05:05;163295.09;;;27.56;49.71
29331;BME280;16331;52.528;13.342;2022-08-03T07:07:37;163364.66;;;27.81;50.20
29331;BME280;16331;52.528;13.342;2022-08-03T07:10:06;163407.84;;;27.97;48.70
29331;BME280;16331;52.528;13.342;2022-08-03T07:12:33;163405.06;;;27.96;48.24
29331;BME280;16331;52.528;13.342;2022-08-03T07:15:00;163437.09;;;28.07;48.54
29331;BME280;16331;52.528;13.342;2022-08-03T07:17:28;163398.09;;;27.93;48.74
29331;BME280;16331;52.528;13.342;2022-08-03T07:19:55;163457.97;;;28.15;48.36
29331;BME280;16331;52.528;13.342;2022-08-03T07:22:21;163435.69;;;28.07;48.35
29331;BME280;16331;52.528;13.342;2022-08-03T07:24:47;163558.22;;;28.51;48.02
29331;BME280;16331;52.528;13.342;2022-08-03T07:27:15;163626.47;;;28.76;48.20
29331;BME280;16331;52.528;13.342;2022-08-03T07:29:41;163672.47;;;28.92;45.76
29331;BME280;16331;52.528;13.342;2022-08-03T07:32:07;163675.22;;;28.93;44.96
29331;BME280;16331;52.528;13.342;2022-08-03T07:34:33;163757.44;;;29.23;45.00
29331;BME280;16331;52.528;13.342;2022-08-03T07:37:00;163651.53;;;28.85;45.96
29331;BME280;16331;52.528;13.342;2022-08-03T07:39:26;163687.75;;;28.98;45.09
29331;BME280;16331;52.528;13.342;2022-08-03T07:41:52;163598.63;;;28.66;46.32
29331;BME280;16331;52.528;13.342;2022-08-03T07:44:18;163691.91;;;28.99;45.60
29331;BME280;16331;52.528;13.342;2022-08-03T07:46:44;163648.75;;;28.84;45.02
29331;BME280;16331;52.528;13.342;2022-08-03T07:49:11;163643.19;;;28.82;46.12
29331;BME280;16331;52.528;13.342;2022-08-03T07:51:37;163668.28;;;28.91;45.64
29331;BME280;16331;52.528;13.342;2022-08-03T07:54:03;163691.91;;;28.99;44.72
29331;BME280;16331;52.528;13.342;2022-08-03T07:56:30;163770.00;;;29.27;44.34
29331;BME280;16331;52.528;13.342;2022-08-03T07:58:56;163701.69;;;29.03;44.50
29331;BME280;16331;52.528;13.342;2022-08-03T08:01:22;163666.88;;;28.90;43.52
29331;BME280;16331;52.528;13.342;2022-08-03T08:03:49;163730.97;;;29.13;43.94
29331;BME280;16331;52.528;13.342;2022-08-03T08:06:17;163732.38;;;29.14;43.50
29331;BME280;16331;52.528;13.342;2022-08-03T08:08:44;163746.31;;;29.19;43.43
29331;BME280;16331;52.528;13.342;2022-08-03T08:11:10;163822.97;;;29.46;42.59
29331;BME280;16331;52.528;13.342;2022-08-03T08:13:39;163952.63;;;29.93;42.96
29331;BME280;16331;52.528;13.342;2022-08-03T08:16:06;164032.13;;;30.22;41.57
29331;BME280;16331;52.528;13.342;2022-08-03T08:18:33;163919.13;;;29.81;41.92
29331;BME280;16331;52.528;13.342;2022-08-03T08:21:01;164005.59;;;30.12;41.14
29331;BME280;16331;52.528;13.342;2022-08-03T08:23:28;163921.97;;;29.82;41.09
29331;BME280;16331;52.528;13.342;2022-08-03T08:25:54;164026.47;;;30.20;40.67
29331;BME280;16331;52.528;13.342;2022-08-03T08:28:21;164066.97;;;30.34;39.33
29331;BME280;16331;52.528;13.342;2022-08-03T08:30:50;164107.41;;;30.49;39.08
29331;BME280;16331;52.528;13.342;2022-08-03T08:33:16;164083.69;;;30.40;38.51
29331;BME280;16331;52.528;13.342;2022-08-03T08:35:42;164013.94;;;30.15;38.96
29331;BME280;16331;52.528;13.342;2022-08-03T08:38:09;164064.19;;;30.33;38.39
29331;BME280;16331;52.528;13.342;2022-08-03T08:40:38;164066.97;;;30.34;38.55
29331;BME280;16331;52.528;13.342;2022-08-03T08:43:04;164100.41;;;30.46;38.65
29331;BME280;16331;52.528;13.342;2022-08-03T08:45:32;164200.88;;;30.82;37.07
29331;BME280;16331;52.528;13.342;2022-08-03T08:48:02;164135.31;;;30.59;37.65
29331;BME280;16331;52.528;13.342;2022-08-03T08:50:30;164122.72;;;30.54;37.98
29331;BME280;16331;52.528;13.342;2022-08-03T08:52:59;164111.56;;;30.50;37.51
29331;BME280;16331;52.528;13.342;2022-08-03T08:55:26;164092.03;;;30.43;37.04
29331;BME280;16331;52.528;13.342;2022-08-03T08:58:00;164096.22;;;30.45;36.67
29331;BME280;16331;52.528;13.342;2022-08-03T09:00:28;164111.56;;;30.50;37.34
29331;BME280;16331;52.528;13.342;2022-08-03T09:02:55;164055.78;;;30.30;36.62
29331;BME280;16331;52.528;13.342;2022-08-03T09:05:21;164082.25;;;30.40;37.60
29331;BME280;16331;52.528;13.342;2022-08-03T09:07:48;164198.06;;;30.81;37.03
29331;BME280;16331;52.528;13.342;2022-08-03T09:10:16;164210.66;;;30.86;36.31
29331;BME280;16331;52.528;13.342;2022-08-03T09:12:50;164269.19;;;31.07;36.50
29331;BME280;16331;52.528;13.342;2022-08-03T09:15:22;164267.84;;;31.07;35.50
29331;BME280;16331;52.528;13.342;2022-08-03T09:17:51;164241.34;;;30.97;35.90
29331;BME280;16331;52.528;13.342;2022-08-03T09:20:18;164185.53;;;30.77;36.42
29331;BME280;16331;52.528;13.342;2022-08-03T09:22:52;164122.72;;;30.54;36.93
29331;BME280;16331;52.528;13.342;2022-08-03T09:25:25;164217.59;;;30.88;37.06
29331;BME280;16331;52.528;13.342;2022-08-03T09:27:53;164223.19;;;30.90;37.23
29331;BME280;16331;52.528;13.342;2022-08-03T09:30:19;164231.56;;;30.93;36.78
29331;BME280;16331;52.528;13.342;2022-08-03T09:32:46;164168.75;;;30.71;37.02
29331;BME280;16331;52.528;13.342;2022-08-03T09:35:32;164298.53;;;31.18;36.98
29331;BME280;16331;52.528;13.342;2022-08-03T09:38:13;164207.84;;;30.85;36.53
29331;BME280;16331;52.528;13.342;2022-08-03T09:40:40;164178.53;;;30.74;37.14
29331;BME280;16331;52.528;13.342;2022-08-03T09:43:08;164327.78;;;31.28;36.25
29331;BME280;16331;52.528;13.342;2022-08-03T09:45:37;164309.66;;;31.22;36.24
29331;BME280;16331;52.528;13.342;2022-08-03T09:48:26;164260.84;;;31.04;36.23
29331;BME280;16331;52.528;13.342;2022-08-03T09:51:00;164281.78;;;31.12;36.52
29331;BME280;16331;52.528;13.342;2022-08-03T09:53:28;164334.84;;;31.31;36.22
29331;BME280;16331;52.528;13.342;2022-08-03T09:55:56;164290.16;;;31.15;36.14
29331;BME280;16331;52.528;13.342;2022-08-03T09:58:24;164262.25;;;31.04;36.24
29331;BME280;16331;52.528;13.342;2022-08-03T10:01:02;164329.22;;;31.29;35.94
29331;BME280;16331;52.528;13.342;2022-08-03T10:03:31;164353.00;;;31.37;36.30
29331;BME280;16331;52.528;13.342;2022-08-03T10:05:58;164439.47;;;31.68;35.76
29331;BME280;16331;52.528;13.342;2022-08-03T10:08:24;164369.72;;;31.43;36.28
29331;BME280;16331;52.528;13.342;2022-08-03T10:10:52;164422.75;;;31.62;35.59
29331;BME280;16331;52.528;13.342;2022-08-03T10:13:23;164389.22;;;31.50;35.28
29331;BME280;16331;52.528;13.342;2022-08-03T10:15:49;164421.34;;;31.62;35.62
29331;BME280;16331;52.528;13.342;2022-08-03T10:18:15;164344.63;;;31.34;35.59
29331;BME280;16331;52.528;13.342;2022-08-03T10:20:48;164452.03;;;31.73;35.50
29331;BME280;16331;52.528;13.342;2022-08-03T10:23:16;164421.34;;;31.62;35.60
29331;BME280;16331;52.528;13.342;2022-08-03T10:25:48;164489.78;;;31.86;35.27
29331;BME280;16331;52.528;13.342;2022-08-03T10:28:18;164470.19;;;31.79;35.38
29331;BME280;16331;52.528;13.342;2022-08-03T10:30:48;164524.69;;;31.99;35.68
29331;BME280;16331;52.528;13.342;2022-08-03T10:33:25;164492.56;;;31.87;35.15
29331;BME280;16331;52.528;13.342;2022-08-03T10:35:55;164547.00;;;32.07;35.04
29331;BME280;16331;52.528;13.342;2022-08-03T10:38:39;164499.56;;;31.90;34.48
29331;BME280;16331;52.528;13.342;2022-08-03T10:41:07;164376.69;;;31.46;35.43
29331;BME280;16331;52.528;13.342;2022-08-03T10:46:16;164588.91;;;32.22;34.79
29331;BME280;16331;52.528;13.342;2022-08-03T10:48:48;164583.31;;;32.20;34.70
29331;BME280;16331;52.528;13.342;2022-08-03T10:51:25;164555.38;;;32.10;34.76
29331;BME280;16331;52.528;13.342;2022-08-03T10:53:57;164535.88;;;32.03;34.94
29331;BME280;16331;52.528;13.342;2022-08-03T11:02:13;164576.31;;;32.17;34.36
29331;BME280;16331;52.528;13.342;2022-08-03T11:04:48;164519.09;;;31.97;34.56
29331;BME280;16331;52.528;13.342;2022-08-03T11:07:28;164507.94;;;31.93;35.16
29331;BME280;16331;52.528;13.342;2022-08-03T11:09:56;164714.59;;;32.67;33.88
29331;BME280;16331;52.528;13.342;2022-08-03T11:12:28;164882.28;;;33.27;32.87
29331;BME280;16331;52.528;13.342;2022-08-03T11:14:55;165019.25;;;33.77;32.01
29331;BME280;16331;52.528;13.342;2022-08-03T11:17:25;164904.66;;;33.35;32.20
29331;BME280;16331;52.528;13.342;2022-08-03T11:19:57;164996.91;;;33.68;32.37
29331;BME280;16331;52.528;13.342;2022-08-03T11:22:23;165238.84;;;34.55;30.81
29331;BME280;16331;52.528;13.342;2022-08-03T11:27:33;165334.00;;;34.89;30.38
29331;BME280;16331;52.528;13.342;2022-08-03T11:35:29;165875.78;;;36.84;27.90
29331;BME280;16331;52.528;13.342;2022-08-03T11:38:03;165626.50;;;35.94;29.09
29331;BME280;16331;52.528;13.342;2022-08-03T11:40:41;165780.56;;;36.50;28.20
29331;BME280;16331;52.528;13.342;2022-08-03T11:46:07;165584.44;;;35.79;28.91
29331;BME280;16331;52.528;13.342;2022-08-03T11:48:39;165682.50;;;36.14;28.79
29331;BME280;16331;52.528;13.342;2022-08-03T11:53:52;166001.91;;;37.29;27.46
29331;BME280;16331;52.528;13.342;2022-08-03T11:56:18;166091.56;;;37.61;27.24
29331;BME280;16331;52.528;13.342;2022-08-03T11:58:53;166027.09;;;37.38;27.09
29331;BME280;16331;52.528;13.342;2022-08-03T12:01:21;165853.31;;;36.76;27.35
29331;BME280;16331;52.528;13.342;2022-08-03T12:03:48;166212.13;;;38.04;26.65
29331;BME280;16331;52.528;13.342;2022-08-03T12:06:18;166252.84;;;38.19;26.15
29331;BME280;16331;52.528;13.342;2022-08-03T12:08:46;166205.16;;;38.02;26.39
29331;BME280;16331;52.528;13.342;2022-08-03T12:11:16;166257.03;;;38.20;26.60
29331;BME280;16331;52.528;13.342;2022-08-03T12:13:45;166404.28;;;38.73;25.62
29331;BME280;16331;52.528;13.342;2022-08-03T12:16:20;166352.38;;;38.54;25.91
29331;BME280;16331;52.528;13.342;2022-08-03T12:18:59;165996.28;;;37.27;27.63
29331;BME280;16331;52.528;13.342;2022-08-03T12:21:26;166384.63;;;38.66;25.80
29331;BME280;16331;52.528;13.342;2022-08-03T12:23:57;166578.22;;;39.35;24.92
29331;BME280;16331;52.528;13.342;2022-08-03T12:26:25;166080.38;;;37.57;26.74
29331;BME280;16331;52.528;13.342;2022-08-03T12:28:52;166283.66;;;38.30;25.97
29331;BME280;16331;52.528;13.342;2022-08-03T12:31:18;166238.81;;;38.14;26.20
29331;BME280;16331;52.528;13.342;2022-08-03T12:34:02;165737.13;;;36.34;27.82
29331;BME280;16331;52.528;13.342;2022-08-03T12:36:31;165889.81;;;36.89;27.41
29331;BME280;16331;52.528;13.342;2022-08-03T12:39:06;165884.19;;;36.87;27.51
29331;BME280;16331;52.528;13.342;2022-08-03T12:41:37;166404.28;;;38.73;26.08
29331;BME280;16331;52.528;13.342;2022-08-03T12:44:05;166481.47;;;39.01;25.58
29331;BME280;16331;52.528;13.342;2022-08-03T12:46:35;166626.00;;;39.52;25.03
29331;BME280;16331;52.528;13.342;2022-08-03T12:49:03;166285.09;;;38.30;25.79
29331;BME280;16331;52.528;13.342;2022-08-03T12:51:40;166238.81;;;38.14;26.32
29331;BME280;16331;52.528;13.342;2022-08-03T12:54:27;166384.63;;;38.66;25.91
29331;BME280;16331;52.528;13.342;2022-08-03T12:59:24;166860.38;;;40.36;23.66
29331;BME280;16331;52.528;13.342;2022-08-03T13:01:51;166691.91;;;39.76;24.14
29331;BME280;16331;52.528;13.342;2022-08-03T13:04:34;166795.78;;;40.13;24.23
29331;BME280;16331;52.528;13.342;2022-08-03T13:07:04;166651.22;;;39.61;24.39
29331;BME280;16331;52.528;13.342;2022-08-03T13:09:43;166400.06;;;38.71;25.38
29331;BME280;16331;52.528;13.342;2022-08-03T13:12:17;166717.16;;;39.85;24.52
29331;BME280;16331;52.528;13.342;2022-08-03T13:14:54;167274.78;;;41.84;22.56
29331;BME280;16331;52.528;13.342;2022-08-03T13:17:22;167422.38;;;42.37;21.93
29331;BME280;16331;52.528;13.342;2022-08-03T13:19:49;166784.56;;;40.09;23.92
29331;BME280;16331;52.528;13.342;2022-08-03T13:22:18;166989.56;;;40.82;23.27